Flag for Italy

Past Weather in 45°46'00"N, 10°49'00"E, Italy — Yesterday and Last 2 Weeks

Currently: 43 °F. Passing clouds. (Weather station: Verona / Villafranca, Italy). See more current weather

Past Weather in 45°46'00"N, 10°49'00"E — Graph

°F

45°46'00"N, 10°49'00"E Temperature Yesterday

Maximum temperature yesterday: 55 °F (at 1:20 pm)
Minimum temperature yesterday: 36 °F (at 4:50 am)
Average temperature yesterday: 46 °F

High & Low Weather Summary for the Past Weeks

 TemperatureHumidityPressure
High61 °F (Feb 18, 1:50 pm)100% (Feb 11, 2:20 am)30.48 "Hg (Feb 11, 2:20 am)
Low36 °F (Feb 14, 4:20 am)48% (Feb 14, 11:50 am)29.21 "Hg (Feb 11, 2:50 am)
Average48 °F83%29.99 "Hg
* Reported Feb 10 8:50 pm — Feb 25 8:50 pm, 45°46'00"N, 10°49'00"E. Weather by CustomWeather, © 2024

Note: Actual official high and low records may vary slightly from our data, if they occured in-between our weather recording intervals... More about our weather records

45°46'00"N, 10°49'00"E Weather History for the Previous 24 Hours

Scroll right to see more
 ConditionsComfort  
Time TempWeatherWind HumidityBarometerVisibility
8:50 pm
Sun, Feb 25
43 °FClear.2 mph87%29.77 "Hg10 mi
8:20 pm43 °FClear.3 mph87%29.77 "Hg10 mi
7:50 pm46 °FClear.3 mph76%29.80 "Hg10 mi
7:20 pm48 °FClear.3 mph71%29.80 "Hg10 mi
6:50 pm50 °FPassing clouds.3 mph67%29.80 "HgN/A
6:20 pm52 °FPassing clouds.3 mph62%29.77 "HgN/A
5:50 pm50 °FScattered clouds.5 mph71%29.77 "HgN/A
5:20 pm54 °FScattered clouds.6 mph58%29.77 "HgN/A
4:50 pm55 °FScattered clouds.5 mph59%29.77 "HgN/A
4:20 pm54 °FScattered clouds.2 mph58%29.77 "HgN/A
3:20 pm55 °FScattered clouds.5 mph59%29.77 "HgN/A
2:50 pm55 °FPassing clouds.3 mph55%29.80 "HgN/A
2:20 pm54 °FPartly sunny.3 mph58%29.80 "HgN/A
1:50 pm54 °FScattered clouds.3 mph63%29.80 "HgN/A
1:20 pm52 °FPartly sunny.3 mph62%29.80 "HgN/A
12:50 pm54 °FPartly sunny.6 mph63%29.83 "HgN/A
12:20 pm54 °FScattered clouds.6 mph58%29.83 "HgN/A
11:50 am54 °FPassing clouds.2 mph67%29.83 "HgN/A
11:20 am54 °FPartly sunny.3 mph67%29.83 "HgN/A
10:50 am52 °FPartly sunny.2 mph72%29.86 "HgN/A
10:20 am50 °FPartly sunny.2 mph76%29.86 "HgN/A
9:50 am48 °FOvercast.2 mph82%29.86 "HgN/A
9:20 am46 °FOvercast.3 mph87%29.86 "HgN/A
8:50 am45 °FPartly sunny.3 mph87%29.86 "HgN/A
7:50 am41 °FBroken clouds.2 mph93%29.86 "HgN/A
7:20 am41 °FBroken clouds.2 mph93%29.83 "HgN/A
6:50 am41 °FPassing clouds.3 mph93%29.83 "HgN/A
6:20 am39 °FPassing clouds.2 mph100%29.83 "HgN/A
5:50 am39 °FPassing clouds.2 mph93%29.83 "HgN/A
5:20 am39 °FPassing clouds.5 mph100%29.83 "HgN/A
4:50 am39 °FPassing clouds.5 mph93%29.83 "HgN/A
4:20 am39 °FPassing clouds.3 mph93%29.83 "HgN/A
3:20 am39 °FPassing clouds.3 mph93%29.83 "Hg6 mi
2:50 am39 °FPassing clouds.2 mph93%29.83 "HgN/A
2:20 am39 °FPassing clouds.3 mph100%29.83 "HgN/A
1:50 am41 °FPassing clouds.2 mph93%29.83 "HgN/A
12:20 am43 °FPassing clouds.2 mph93%29.83 "HgN/A
11:50 pm
Sat, Feb 24
45 °FPassing clouds.2 mph87%29.83 "HgN/A
11:20 pm45 °FPassing clouds.1 mph81%29.83 "HgN/A
10:50 pm45 °FPassing clouds.3 mph81%29.83 "HgN/A
10:20 pm46 °FPassing clouds.6 mph82%29.83 "HgN/A
Weather by CustomWeather, © 2024

See weather overview